• Join FlightAware (Why Join?)
  • Login
  • US Flag 
09:55PM EST


 

Airport Tracker/Info


-or-


 

Live Flight TrackerFlight Track Log ✈ SWA305 ✈ 27-Sep-2013 ✈ KOAK - KSEA

Flight Track Log - Related Links

Times and Time Zones

All times are in EDT time to prevent confusion due to time zone crossing. See the SWA305 flight status page for this flight to view local times or setup timezone preferences in your user account.

Time Position Orientation Groundspeed Altitude Reporting Facility
EDT Latitude Longitude Course Direction KTS MPH feet Rate Location/Type
12:13AM 37.7594 -122.2847 319° Northwest 214 246 3,500  Level Oakland Center
12:14AM 37.8208 -122.2647 14° North 229 264 6,200 3,300 Climbing Oakland Center
12:15AM 37.8931 -122.2400 15° North 260 299 10,300 3,540 Climbing Oakland Center
12:16AM 37.9803 -122.2467 357° North 318 366 13,500 3,240 Climbing Oakland Center
12:17AM 38.0750 -122.2458 360° North 340 391 16,900 3,240 Climbing Oakland Center
12:18AM 38.1764 -122.2456 360° North 365 420 20,200 3,240 Climbing Oakland Center
12:19AM 38.3044 -122.2442 360° North 384 442 23,600 2,820 Climbing Oakland Center
12:20AM 38.4156 -122.2439 360° North 399 459 26,000 2,460 Climbing Oakland Center
12:21AM 38.5311 -122.2433 360° North 413 475 28,700 2,400 Climbing Oakland Center
12:22AM 38.6475 -122.2422 360° North 418 481 30,900 2,280 Climbing Oakland Center
12:23AM 38.7611 -122.2425 360° North 419 482 33,400 2,340 Climbing Oakland Center
12:24AM 38.8761 -122.2422 360° North 415 478 35,700 2,040 Climbing Oakland Center
12:25AM 38.9861 -122.2417 360° North 403 464 37,700 1,440 Climbing Oakland Center
12:26AM 39.0989 -122.2417 360° North 401 461 38,700 1,080 Climbing Oakland Center
12:27AM 39.2128 -122.2394 North 403 464 39,900 600 Climbing Oakland Center
12:28AM 39.3264 -122.2392 360° North 406 467 40,000  Climbing Oakland Center
12:29AM 39.4600 -122.2386 360° North 402 463 40,000  Level Oakland Center
12:30AM 39.5711 -122.2383 360° North 403 464 40,000  Level Oakland Center
12:31AM 39.6831 -122.2378 360° North 404 465 40,000 -120 Level Oakland Center
12:32AM 39.7953 -122.2372 360° North 403 464 39,800 -600 Descending Oakland Center
12:33AM 39.9064 -122.2369 360° North 402 463 38,800 -900 Descending Oakland Center
12:34AM 40.0103 -122.2350 North 382 440 38,000 -420 Descending Oakland Center
12:35AM 40.1158 -122.2314 North 386 444 38,000  Level Oakland Center
12:36AM 40.2422 -122.2425 356° North 424 488 38,000  Level Oakland Center
12:37AM 40.3469 -122.2506 357° North 390 449 38,000  Level Oakland Center
12:38AM 40.4517 -122.2575 357° North 384 442 38,000  Level Oakland Center
12:39AM 40.5578 -122.2628 358° North 382 440 38,000  Level Oakland Center
12:40AM 40.6642 -122.2686 358° North 383 441 38,000  Level Oakland Center
12:41AM 40.7703 -122.2733 358° North 383 441 38,000  Level Oakland Center
12:42AM 40.8756 -122.2800 357° North 380 437 38,000  Level Oakland Center
12:43AM 40.9822 -122.2850 358° North 383 441 38,000  Level Oakland Center
12:44AM 41.0886 -122.2936 357° North 383 441 38,000  Level Oakland Center
12:45AM 41.2181 -122.3044 356° North 387 445 38,000  Level Oakland Center
12:46AM 41.3250 -122.3100 358° North 386 444 38,000  Level Oakland Center
12:47AM 41.3878 -122.3150 357° North 384 442 38,000  Level Seattle Center
12:48AM 41.5053 -122.3217 358° North 385 443 38,000  Level Seattle Center
12:49AM 41.6122 -122.3283 357° North 385 443 38,000  Level Seattle Center
12:50AM 41.7192 -122.3336 358° North 383 441 38,000  Level Seattle Center
12:51AM 41.8256 -122.3394 358° North 383 441 38,000  Level Seattle Center
12:52AM 41.9328 -122.3456 358° North 385 443 38,000  Level Seattle Center
12:53AM 42.0406 -122.3517 358° North 386 444 38,000  Level Seattle Center
12:54AM 42.1478 -122.3589 357° North 383 441 38,000  Level Seattle Center
12:55AM 42.2561 -122.3639 358° North 386 444 38,000  Level Seattle Center
12:56AM 42.3628 -122.3689 358° North 383 441 38,000  Level Seattle Center
12:57AM 42.4700 -122.3767 357° North 383 441 38,000  Level Seattle Center
12:58AM 42.5767 -122.3831 357° North 382 440 38,000  Level Seattle Center
12:59AM 42.6833 -122.3906 357° North 382 440 38,000  Level Seattle Center
01:00AM 42.7944 -122.3969 358° North 384 442 38,000  Level Seattle Center
01:01AM 42.9014 -122.4028 358° North 385 443 38,000  Level Seattle Center
01:02AM 43.0100 -122.4103 357° North 388 447 38,000  Level Seattle Center
01:03AM 43.1164 -122.4164 358° North 383 441 38,000  Level Seattle Center
01:04AM 43.2264 -122.4244 357° North 390 449 38,000  Level Seattle Center
01:05AM 43.3350 -122.4319 357° North 389 448 38,000  Level Seattle Center
01:06AM 43.4428 -122.4383 358° North 389 448 38,000  Level Seattle Center
01:07AM 43.5497 -122.4458 357° North 385 443 38,000  Level Seattle Center
01:08AM 43.6575 -122.4522 358° North 386 444 38,000  Level Seattle Center
01:09AM 43.7653 -122.4581 358° North 387 445 38,000  Level Seattle Center
01:10AM 43.8736 -122.4650 357° North 391 450 38,000  Level Seattle Center
01:11AM 43.9811 -122.4728 357° North 389 448 38,000  Level Seattle Center
01:12AM 44.0878 -122.4789 358° North 386 444 38,000  Level Seattle Center
01:13AM 44.1947 -122.4872 357° North 386 444 38,000  Level Seattle Center
01:14AM 44.3025 -122.4939 357° North 388 447 38,000  Level Seattle Center
01:15AM 44.4308 -122.5022 357° North 387 445 38,000  Level Seattle Center
01:16AM 44.5389 -122.5103 357° North 389 448 38,000  Level Seattle Center
01:17AM 44.6461 -122.5164 358° North 389 448 38,000  Level Seattle Center
01:18AM 44.7525 -122.5244 357° North 386 444 38,000  Level Seattle Center
01:19AM 44.8586 -122.5317 357° North 383 441 38,000  Level Seattle Center
01:20AM 44.9683 -122.5392 357° North 384 442 38,000  Level Seattle Center
01:21AM 45.0744 -122.5456 358° North 383 441 38,000  Level Seattle Center
01:22AM 45.1814 -122.5525 357° North 386 444 38,000  Level Seattle Center
01:23AM 45.2867 -122.5600 357° North 382 440 38,000  Level Seattle Center
01:24AM 45.3942 -122.5672 357° North 387 445 38,000  Level Seattle Center
01:25AM 45.5000 -122.5747 357° North 384 442 38,000  Level Seattle Center
01:26AM 45.6058 -122.5822 357° North 382 440 38,000  Level Seattle Center
01:27AM 45.7125 -122.5878 358° North 384 442 38,000  Level Seattle Center
01:28AM 45.8172 -122.6072 353° North 381 438 38,000  Level Seattle Center
01:29AM 45.9217 -122.6331 350° North 380 437 38,000 -960 Level Seattle Center
01:30AM 46.0242 -122.6589 350° North 378 435 36,100 -2,400 Descending Seattle Center
01:31AM 46.1261 -122.6833 351° North 374 430 33,200 -2,880 Descending Seattle Center
01:32AM 46.2383 -122.7033 353° North 397 457 30,300 -2,700 Descending Seattle Center
01:33AM 46.3511 -122.7217 354° North 406 467 27,800 -2,520 Descending Seattle Center
01:34AM 46.4664 -122.7258 359° North 413 475 25,300 -2,460 Descending Seattle Center
01:35AM 46.5800 -122.7333 357° North 412 474 22,900 -2,640 Descending Seattle Center
01:36AM 46.7100 -122.7411 358° North 402 463 20,000 -2,700 Descending Seattle Center
01:37AM 46.7242 -122.7386 North 383 441 19,800 -1,920 Descending Seattle Center
01:37AM 46.8119 -122.7186 North 388 447 18,100 -1,980 Descending Seattle Center
01:37AM 46.8178 -122.7047 58° Northeast 384 442 18,000 -1,980 Descending Seattle Center
01:38AM 46.8944 -122.6097 40° Northeast 392 451 16,100 -2,220 Descending Seattle Center
01:38AM 46.9011 -122.6047 27° Northeast 394 453 15,800 -1,920 Descending Seattle Center
01:39AM 46.9861 -122.5392 28° Northeast 373 429 14,200 -1,800 Descending Seattle Center
01:40AM 47.0292 -122.5228 15° North 348 400 13,300 -1,800 Descending Seattle Center
01:40AM 47.0789 -122.5003 17° North 349 402 12,400 -1,920 Descending Seattle Center
01:41AM 47.1278 -122.4917 North 330 380 11,400 -1,740 Descending Seattle Center
01:41AM 47.1758 -122.4819 North 328 377 10,700 -1,020 Descending Seattle Center
01:42AM 47.1894 -122.4808 North 316 364 10,700 -1,020 Level Seattle Center
01:42AM 47.2586 -122.4689 North 301 346 9,700 -1,260 Descending Seattle Center
01:42AM 47.2644 -122.4694 356° North 288 331 9,600 -1,320 Descending Seattle Center
01:43AM 47.3375 -122.4569 North 287 330 8,400 -1,200 Descending Seattle Center
01:44AM 47.3478 -122.4567 North 279 321 8,300 -1,140 Descending Seattle Center
01:44AM 47.4114 -122.4531 North 271 312 7,300 -1,200 Descending Seattle Center
01:45AM 47.4164 -122.4550 345° North 262 302 7,200 -1,140 Descending Seattle Center
01:45AM 47.4839 -122.4544 360° North 260 299 6,200 -1,320 Descending Seattle Center
01:46AM 47.5164 -122.4558 358° North 259 298 5,400 -1,200 Descending Seattle Center
01:46AM 47.5569 -122.4550 North 261 300 5,000 -480 Descending Seattle Center
01:47AM 47.5850 -122.4542 North 264 304 5,000  Level Seattle Center
01:47AM 47.6303 -122.4531 North 263 303 5,000 -540 Level Seattle Center
01:48AM 47.6508 -122.4247 43° Northeast 265 305 4,500 -1,620 Descending Seattle Center
01:48AM 47.6453 -122.3644 98° East 247 284 3,400 -1,440 Descending Seattle Center
01:49AM 47.6317 -122.3397 129° Southeast 217 250 3,100 -720 Descending Seattle Center
01:49AM 47.6011 -122.3258 163° South 190 219 2,700 -660 Descending Seattle Center
01:50AM 47.5869 -122.3217 169° South 162 186 2,500 -600 Descending Seattle Center
01:50AM 47.5564 -122.3158 173° South 166 191 2,100 -540 Descending Seattle Center
01:51AM 47.5447 -122.3122 168° South 146 168 2,000 -540 Descending Seattle Center
01:51AM 47.5189 -122.3106 178° South 140 161 1,600 -600 Descending Seattle Center
01:52AM 47.5111 -122.3111 183° South 124 143 1,500 -600 Descending Seattle Center
01:53AM 47.4872 -122.3114 180° South 119 137 1,000 -720 Descending Seattle Center
01:53AM 47.4800 -122.3119 183° South 109 125 800 -600 Descending Seattle Center
01:54AM 47.4564 -122.3128 181° South 118 136 400 -540 Descending Seattle Center
01:55AM 47.4499 -122.3118 173° South  Level Estimated
02:02AM 47.4499 -122.3118 173° South  Level Estimated